Time;durP1;ratioP1;P1;durP2;ratioP2;P2;SDS_P1;SDS_P2;PMS_P1;PMS_P2;Temp;Humidity;BMP_temperature;BMP_pressure;BME280_temperature;BME280_humidity;BME280_pressure;Samples;Min_cycle;Max_cycle;Signal;HPM_P1;HPM_P2
2022/10/31 00:00:45;;;;;;;29.13;20.48;;;11.20;99.90;;;;;;5088107;27;20051;-52
2022/10/31 00:03:11;;;;;;;31.83;20.20;;;11.20;99.90;;;;;;5118855;27;20054;-51
2022/10/31 00:05:41;;;;;;;28.60;21.10;;;11.20;99.90;;;;;;5132030;27;20088;-55
2022/10/31 00:08:07;;;;;;;34.03;21.00;;;11.10;99.90;;;;;;5118510;27;20403;-48
2022/10/31 00:10:32;;;;;;;28.65;20.77;;;11.20;99.90;;;;;;5130275;27;20063;-46
2022/10/31 00:12:58;;;;;;;31.50;23.17;;;11.20;99.90;;;;;;5136758;27;20045;-51
2022/10/31 00:15:23;;;;;;;36.67;21.65;;;11.20;99.90;;;;;;5116514;27;20082;-50
2022/10/31 00:17:49;;;;;;;32.85;22.05;;;11.20;99.90;;;;;;5136544;27;20031;-47
2022/10/31 00:20:15;;;;;;;36.60;22.17;;;11.00;99.90;;;;;;5136909;27;20115;-51
2022/10/31 00:22:40;;;;;;;31.48;22.15;;;11.00;99.90;;;;;;5137079;27;20446;-48
2022/10/31 00:25:06;;;;;;;32.55;22.70;;;11.00;99.90;;;;;;5135667;27;20050;-52
2022/10/31 00:27:32;;;;;;;32.63;21.73;;;11.10;99.90;;;;;;5135410;27;20046;-51
2022/10/31 00:29:57;;;;;;;27.23;20.98;;;11.10;99.90;;;;;;5135934;27;20267;-47
2022/10/31 00:32:23;;;;;;;33.70;22.65;;;11.00;99.90;;;;;;5116930;27;20133;-47
2022/10/31 00:34:49;;;;;;;37.13;24.00;;;10.90;99.90;;;;;;5138936;27;20054;-50
2022/10/31 00:37:14;;;;;;;33.42;21.65;;;10.90;99.90;;;;;;5140770;27;20103;-53
2022/10/31 00:39:40;;;;;;;36.17;23.92;;;11.00;99.90;;;;;;5139914;27;20050;-46
2022/10/31 00:42:05;;;;;;;33.45;22.10;;;10.90;99.90;;;;;;5141207;27;20073;-44
2022/10/31 00:44:31;;;;;;;32.55;22.02;;;11.00;99.90;;;;;;5139645;27;20129;-50
2022/10/31 00:46:57;;;;;;;33.80;21.85;;;10.80;99.90;;;;;;5140807;27;20359;-48
2022/10/31 00:49:22;;;;;;;30.33;21.48;;;10.80;99.90;;;;;;5121151;27;20137;-44
2022/10/31 00:51:48;;;;;;;28.90;21.17;;;10.90;99.90;;;;;;5140382;27;20045;-46
2022/10/31 00:54:13;;;;;;;32.45;20.52;;;10.80;99.90;;;;;;5140310;27;20137;-51
2022/10/31 00:56:39;;;;;;;29.92;20.58;;;10.80;99.90;;;;;;5140709;27;20034;-47
2022/10/31 00:59:05;;;;;;;35.10;22.35;;;10.80;99.90;;;;;;5139937;27;20043;-47
2022/10/31 01:01:30;;;;;;;32.45;21.38;;;10.80;99.90;;;;;;5140589;27;20150;-49
2022/10/31 01:03:56;;;;;;;36.92;22.52;;;10.90;99.90;;;;;;5140072;27;20065;-48
2022/10/31 01:06:21;;;;;;;33.00;21.02;;;10.90;99.90;;;;;;5136561;27;20459;-53
2022/10/31 01:08:48;;;;;;;37.60;22.95;;;11.00;99.90;;;;;;5128910;27;20047;-50
2022/10/31 01:11:22;;;;;;;40.53;25.38;;;10.90;99.90;;;;;;5139756;27;20413;-50
2022/10/31 01:13:51;;;;;;;34.08;22.65;;;10.90;99.90;;;;;;5139309;27;20122;-46
2022/10/31 01:16:19;;;;;;;39.17;23.20;;;11.00;99.90;;;;;;5121271;27;20050;-47
2022/10/31 01:18:45;;;;;;;35.30;22.52;;;11.00;99.90;;;;;;5138972;27;20055;-50
2022/10/31 01:21:24;;;;;;;32.15;21.95;;;11.10;99.90;;;;;;5139829;27;20053;-50
2022/10/31 01:23:50;;;;;;;28.00;21.05;;;11.00;99.90;;;;;;5120085;27;20504;-46
2022/10/31 01:26:20;;;;;;;32.70;21.52;;;11.10;99.90;;;;;;5138803;27;20042;-50
2022/10/31 01:28:56;;;;;;;31.67;21.25;;;11.10;99.90;;;;;;5138838;27;20058;-52
2022/10/31 01:31:25;;;;;;;35.83;20.55;;;11.00;99.90;;;;;;5139784;27;20392;-45
2022/10/31 01:33:51;;;;;;;31.65;20.90;;;11.10;99.90;;;;;;5120304;27;20047;-46
2022/10/31 01:36:37;;;;;;;26.38;20.58;;;11.00;99.90;;;;;;5139894;27;20043;-48
2022/10/31 01:39:08;;;;;;;30.30;20.98;;;11.10;99.90;;;;;;5139231;27;20070;-49
2022/10/31 01:41:36;;;;;;;32.58;21.52;;;11.00;99.90;;;;;;5139651;27;20150;-50
2022/10/31 01:44:22;;;;;;;34.90;21.90;;;10.90;99.90;;;;;;5138676;27;20129;-48
2022/10/31 01:46:58;;;;;;;29.52;21.70;;;11.00;99.90;;;;;;5033356;28;20045;-49
2022/10/31 01:49:37;;;;;;;33.40;21.08;;;11.00;99.90;;;;;;5017483;28;20459;-52
2022/10/31 01:52:05;;;;;;;30.75;22.48;;;10.90;99.90;;;;;;5034824;28;20148;-48
2022/10/31 01:54:37;;;;;;;32.75;22.17;;;10.90;99.90;;;;;;5017017;28;20508;-49
2022/10/31 01:57:08;;;;;;;30.05;21.92;;;10.90;99.90;;;;;;5034699;28;20049;-46
2022/10/31 01:59:38;;;;;;;28.98;22.52;;;10.90;99.90;;;;;;5033742;28;20136;-51
2022/10/31 02:02:04;;;;;;;30.55;21.75;;;10.90;99.90;;;;;;5034539;28;20064;-49
2022/10/31 02:04:29;;;;;;;32.75;22.55;;;10.90;99.90;;;;;;5034124;28;20419;-49
2022/10/31 02:07:01;;;;;;;30.52;21.67;;;10.80;99.90;;;;;;5034570;28;20402;-44
2022/10/31 02:09:28;;;;;;;29.25;19.95;;;10.80;99.90;;;;;;5033261;28;20569;-44
2022/10/31 02:11:57;;;;;;;29.38;20.20;;;10.80;99.90;;;;;;5034503;28;20482;-51
2022/10/31 02:14:25;;;;;;;28.25;20.17;;;10.80;99.90;;;;;;5034213;28;20091;-44
2022/10/31 02:16:50;;;;;;;28.42;19.75;;;10.80;99.90;;;;;;5034529;28;20539;-49
2022/10/31 02:19:27;;;;;;;26.67;19.42;;;10.80;99.90;;;;;;5034150;28;20072;-51
2022/10/31 02:22:05;;;;;;;27.23;18.98;;;10.70;99.90;;;;;;5034858;28;20060;-49
2022/10/31 02:24:52;;;;;;;26.13;19.42;;;10.80;99.90;;;;;;5104647;27;20789;-44
2022/10/31 02:27:48;;;;;;;26.42;18.65;;;10.70;99.90;;;;;;5138118;27;20117;-49
2022/10/31 02:30:20;;;;;;;28.58;18.67;;;10.70;99.90;;;;;;5138438;27;20046;-45
2022/10/31 02:33:24;;;;;;;28.08;17.85;;;10.70;99.90;;;;;;5138367;27;20055;-54
2022/10/31 02:36:30;;;;;;;22.50;18.70;;;10.60;99.90;;;;;;5126920;27;20069;-51
2022/10/31 02:39:17;;;;;;;23.80;17.98;;;10.60;99.90;;;;;;5109300;27;20050;-47
2022/10/31 02:41:48;;;;;;;22.40;17.35;;;10.60;99.90;;;;;;5138621;27;20053;-46
2022/10/31 02:44:47;;;;;;;23.75;17.65;;;10.50;99.90;;;;;;5138363;27;20130;-50
2022/10/31 02:47:16;;;;;;;24.60;17.60;;;10.50;99.90;;;;;;5007037;28;20053;-52
2022/10/31 02:50:00;;;;;;;26.75;17.90;;;10.40;99.90;;;;;;4996960;28;20061;-50
2022/10/31 02:52:30;;;;;;;22.13;18.67;;;10.50;99.90;;;;;;5014079;28;20065;-44
2022/10/31 02:54:56;;;;;;;24.38;18.70;;;10.40;99.90;;;;;;5012882;28;20169;-50
2022/10/31 02:57:30;;;;;;;28.52;18.42;;;10.40;99.90;;;;;;5011915;28;20064;-48
2022/10/31 03:00:04;;;;;;;24.23;18.35;;;10.30;99.90;;;;;;4996565;28;20059;-49
2022/10/31 03:02:55;;;;;;;25.98;19.13;;;10.30;99.90;;;;;;5010459;28;20049;-54
2022/10/31 03:05:33;;;;;;;27.55;18.27;;;10.40;99.90;;;;;;5010923;28;20131;-52
2022/10/31 03:08:19;;;;;;;26.63;18.48;;;10.30;99.90;;;;;;5011744;28;20783;-44
2022/10/31 03:10:48;;;;;;;26.50;18.70;;;10.30;99.90;;;;;;5012690;28;20757;-51
2022/10/31 03:13:32;;;;;;;22.90;19.70;;;10.20;99.90;;;;;;5012770;28;20204;-46
2022/10/31 03:16:27;;;;;;;26.75;20.17;;;10.20;99.90;;;;;;5012854;28;20053;-47
2022/10/31 03:18:56;;;;;;;28.65;20.35;;;10.20;99.90;;;;;;4918228;29;20400;-45
2022/10/31 03:21:36;;;;;;;30.40;19.80;;;10.10;99.90;;;;;;4934920;29;20055;-45
2022/10/31 03:24:05;;;;;;;22.90;18.95;;;10.20;99.90;;;;;;4974247;28;20153;-45
2022/10/31 03:26:31;;;;;;;29.60;20.17;;;10.10;99.90;;;;;;5018883;28;20084;-50
2022/10/31 03:29:02;;;;;;;29.67;21.52;;;10.10;99.90;;;;;;5051600;28;20143;-48
2022/10/31 03:31:43;;;;;;;25.50;21.27;;;10.20;99.90;;;;;;5052470;28;20056;-51
2022/10/31 03:34:12;;;;;;;25.80;21.27;;;10.10;99.90;;;;;;5035862;28;20183;-49
2022/10/31 03:36:39;;;;;;;32.25;22.02;;;10.10;99.90;;;;;;5003064;28;20097;-53
2022/10/31 03:39:07;;;;;;;27.38;21.83;;;10.00;99.90;;;;;;5052328;28;20052;-47
2022/10/31 03:41:38;;;;;;;29.35;21.90;;;10.00;99.90;;;;;;5035265;28;20418;-49
2022/10/31 03:44:09;;;;;;;26.85;21.15;;;10.00;99.90;;;;;;5052273;28;20090;-47
2022/10/31 03:46:35;;;;;;;29.90;21.90;;;10.00;99.90;;;;;;5057627;28;20114;-45
2022/10/31 03:49:02;;;;;;;30.20;21.55;;;9.90;99.90;;;;;;5051870;28;20072;-48
2022/10/31 03:51:44;;;;;;;33.60;23.13;;;10.00;99.90;;;;;;5035546;28;20056;-48
2022/10/31 03:54:28;;;;;;;28.15;22.45;;;9.90;99.90;;;;;;5052730;27;20060;-44
2022/10/31 03:56:59;;;;;;;30.80;22.55;;;9.90;99.90;;;;;;5136465;27;20556;-49
2022/10/31 03:59:53;;;;;;;33.03;23.25;;;9.90;99.90;;;;;;5136020;27;20050;-47
2022/10/31 04:02:24;;;;;;;35.42;23.45;;;9.90;99.90;;;;;;5132704;27;20050;-48
2022/10/31 04:04:51;;;;;;;35.28;24.80;;;9.90;99.90;;;;;;5133453;27;20103;-48
2022/10/31 04:07:18;;;;;;;35.30;24.30;;;9.80;99.90;;;;;;5137068;27;20070;-47
2022/10/31 04:09:46;;;;;;;34.60;26.23;;;9.90;99.90;;;;;;5126534;27;20046;-43
2022/10/31 04:12:15;;;;;;;33.92;25.52;;;9.90;99.90;;;;;;5118643;27;20055;-49
2022/10/31 04:14:44;;;;;;;32.35;24.35;;;9.80;99.90;;;;;;5118050;27;20396;-48
2022/10/31 04:17:14;;;;;;;32.38;25.08;;;9.80;99.90;;;;;;5135954;27;20511;-46
2022/10/31 04:19:40;;;;;;;31.38;26.15;;;9.70;99.90;;;;;;5137124;27;20079;-44
2022/10/31 04:22:06;;;;;;;35.28;25.42;;;9.80;99.90;;;;;;5137137;27;20471;-44
2022/10/31 04:24:32;;;;;;;33.92;24.95;;;9.70;99.90;;;;;;5118663;27;20057;-49
2022/10/31 04:26:57;;;;;;;36.95;25.60;;;9.70;99.90;;;;;;5136294;27;20915;-50
2022/10/31 04:29:23;;;;;;;37.00;25.42;;;9.60;99.90;;;;;;5118010;27;20119;-48
2022/10/31 04:31:49;;;;;;;35.53;26.20;;;9.70;99.90;;;;;;5136387;27;20116;-46
2022/10/31 04:34:14;;;;;;;34.42;25.77;;;9.70;99.90;;;;;;5136450;27;20126;-47
2022/10/31 04:36:40;;;;;;;32.95;25.27;;;9.60;99.90;;;;;;5136269;27;20070;-45
2022/10/31 04:39:06;;;;;;;39.63;27.60;;;9.70;99.90;;;;;;5136383;27;20914;-44
2022/10/31 04:41:31;;;;;;;35.13;26.60;;;9.60;99.90;;;;;;5136009;27;20046;-52
2022/10/31 04:43:57;;;;;;;34.05;28.17;;;9.50;99.90;;;;;;5135300;27;20047;-51
2022/10/31 04:46:22;;;;;;;35.25;27.70;;;9.60;99.90;;;;;;5135550;27;20047;-51
2022/10/31 04:48:48;;;;;;;38.58;28.58;;;9.50;99.90;;;;;;5135547;27;20053;-50
2022/10/31 04:51:14;;;;;;;43.85;29.55;;;9.50;99.90;;;;;;5117945;27;20151;-50
2022/10/31 04:53:39;;;;;;;37.10;26.50;;;9.60;99.90;;;;;;5117640;27;20057;-44
2022/10/31 04:56:05;;;;;;;35.72;26.73;;;9.60;99.90;;;;;;5136476;27;20444;-45
2022/10/31 04:58:31;;;;;;;41.45;29.67;;;9.50;99.90;;;;;;5117059;27;20054;-50
2022/10/31 05:00:57;;;;;;;36.42;25.50;;;9.50;99.90;;;;;;5132272;27;20398;-47
2022/10/31 05:03:22;;;;;;;33.80;27.33;;;9.50;99.90;;;;;;5135901;27;20086;-44
2022/10/31 05:05:48;;;;;;;36.03;26.55;;;9.40;99.90;;;;;;5132466;27;20045;-48
2022/10/31 05:08:14;;;;;;;34.00;26.80;;;9.50;99.90;;;;;;5130599;27;20417;-51
2022/10/31 05:10:40;;;;;;;40.00;28.20;;;9.40;99.90;;;;;;5111048;27;20134;-43
2022/10/31 05:13:06;;;;;;;38.40;27.88;;;9.40;99.90;;;;;;5135801;27;20046;-43
2022/10/31 05:15:32;;;;;;;34.90;27.10;;;9.40;99.90;;;;;;5136016;27;20058;-45
2022/10/31 05:17:57;;;;;;;36.55;27.23;;;9.50;99.90;;;;;;5135673;27;20054;-47
2022/10/31 05:20:25;;;;;;;32.78;27.80;;;9.50;99.90;;;;;;5138738;27;20046;-46
2022/10/31 05:22:53;;;;;;;37.20;28.63;;;9.40;99.90;;;;;;5139408;27;20480;-51
2022/10/31 05:25:20;;;;;;;37.80;28.40;;;9.40;99.90;;;;;;5140038;27;20046;-54
2022/10/31 05:27:48;;;;;;;36.63;28.45;;;9.50;99.90;;;;;;5138764;27;20154;-52
2022/10/31 05:30:17;;;;;;;39.20;28.63;;;9.50;99.90;;;;;;5139961;27;20203;-54
2022/10/31 05:32:45;;;;;;;39.42;27.98;;;9.40;99.90;;;;;;5139886;27;20570;-51
2022/10/31 05:35:15;;;;;;;40.75;29.23;;;9.50;99.90;;;;;;5139706;27;20085;-49
2022/10/31 05:37:41;;;;;;;39.88;29.02;;;9.50;99.90;;;;;;5139160;27;20047;-46
2022/10/31 05:40:09;;;;;;;37.67;27.17;;;9.40;99.90;;;;;;5139653;27;20051;-47
2022/10/31 05:42:35;;;;;;;40.13;27.90;;;9.50;99.90;;;;;;5120463;27;20593;-48
2022/10/31 05:45:01;;;;;;;41.13;29.75;;;9.40;99.90;;;;;;5120665;27;20592;-46
2022/10/31 05:47:27;;;;;;;39.55;28.65;;;9.50;99.90;;;;;;5138982;27;20133;-46
2022/10/31 05:49:52;;;;;;;40.75;29.17;;;9.40;99.90;;;;;;5139739;27;20051;-47
2022/10/31 05:52:18;;;;;;;41.33;29.55;;;9.40;99.90;;;;;;5139019;27;20433;-44
2022/10/31 05:54:44;;;;;;;42.20;29.38;;;9.50;99.90;;;;;;5138763;27;20381;-53
2022/10/31 05:57:10;;;;;;;38.20;28.10;;;9.40;99.90;;;;;;5119865;27;20043;-48
2022/10/31 05:59:35;;;;;;;38.78;28.00;;;9.50;99.90;;;;;;5139339;27;20040;-49
2022/10/31 06:02:01;;;;;;;39.65;29.58;;;9.50;99.90;;;;;;5120137;27;20062;-50
2022/10/31 06:04:27;;;;;;;37.45;28.58;;;9.40;99.90;;;;;;5134068;27;20956;-45
2022/10/31 06:06:52;;;;;;;40.05;28.08;;;9.40;99.90;;;;;;5138448;27;20046;-53
2022/10/31 06:09:18;;;;;;;40.13;29.00;;;9.50;99.90;;;;;;5108799;27;20042;-45
2022/10/31 06:11:43;;;;;;;35.47;28.00;;;9.40;99.90;;;;;;5139198;27;20050;-44
2022/10/31 06:14:09;;;;;;;38.50;28.20;;;9.30;99.90;;;;;;5138340;27;20505;-51
2022/10/31 06:16:35;;;;;;;35.08;27.83;;;9.40;99.90;;;;;;5139215;27;20158;-54
2022/10/31 06:19:00;;;;;;;39.90;29.10;;;9.30;99.90;;;;;;5138049;27;20098;-50
2022/10/31 06:21:26;;;;;;;45.55;30.15;;;9.30;99.90;;;;;;5137947;27;20043;-52
2022/10/31 06:23:52;;;;;;;38.95;30.20;;;9.30;99.90;;;;;;5118925;27;20047;-48
2022/10/31 06:26:18;;;;;;;47.17;31.90;;;9.30;99.90;;;;;;5137953;27;20515;-49
2022/10/31 06:28:43;;;;;;;43.28;31.52;;;9.50;99.90;;;;;;5118830;27;20125;-44
2022/10/31 06:31:09;;;;;;;44.72;31.35;;;9.40;99.90;;;;;;5137152;27;20360;-47
2022/10/31 06:33:35;;;;;;;44.83;31.85;;;9.40;99.90;;;;;;5137882;27;20139;-51
2022/10/31 06:36:01;;;;;;;43.50;30.63;;;9.40;99.90;;;;;;5119552;27;20146;-47
2022/10/31 06:38:27;;;;;;;41.17;32.40;;;9.40;99.90;;;;;;5136938;27;20038;-47
2022/10/31 06:40:54;;;;;;;49.20;32.08;;;9.50;99.90;;;;;;5137858;27;20047;-47
2022/10/31 06:43:20;;;;;;;54.75;33.50;;;9.40;99.90;;;;;;5118990;27;20517;-48
2022/10/31 06:45:47;;;;;;;46.17;33.60;;;9.40;99.90;;;;;;5137554;27;20098;-51
2022/10/31 06:48:12;;;;;;;46.15;32.08;;;9.50;99.90;;;;;;5137374;27;20551;-49
2022/10/31 06:50:38;;;;;;;47.72;34.03;;;9.40;99.90;;;;;;5119589;27;20447;-51
2022/10/31 06:53:04;;;;;;;48.10;33.45;;;9.40;99.90;;;;;;5137501;27;20083;-48
2022/10/31 06:55:30;;;;;;;46.47;33.00;;;9.50;99.90;;;;;;5137512;27;20092;-44
2022/10/31 06:57:59;;;;;;;47.97;31.63;;;9.50;99.90;;;;;;5137142;27;20085;-47
2022/10/31 07:00:27;;;;;;;47.17;32.88;;;9.50;99.90;;;;;;5137433;27;20047;-50
2022/10/31 07:03:01;;;;;;;47.97;31.88;;;9.70;99.90;;;;;;5118320;27;20612;-47
2022/10/31 07:05:28;;;;;;;41.53;30.55;;;9.70;99.90;;;;;;5134010;27;20057;-49
2022/10/31 07:07:59;;;;;;;41.05;31.00;;;9.60;99.90;;;;;;5133531;27;20513;-49
2022/10/31 07:10:27;;;;;;;46.05;31.20;;;9.70;99.90;;;;;;5111342;27;20130;-51
2022/10/31 07:12:56;;;;;;;40.95;30.63;;;9.70;99.90;;;;;;5137187;27;20252;-45
2022/10/31 07:15:26;;;;;;;41.85;30.40;;;9.80;99.90;;;;;;5118790;27;20051;-49
2022/10/31 07:17:52;;;;;;;45.40;31.90;;;9.70;99.90;;;;;;5123844;27;20500;-45
2022/10/31 07:20:18;;;;;;;41.05;30.15;;;9.80;99.90;;;;;;5137109;27;20962;-54
2022/10/31 07:22:44;;;;;;;38.50;29.30;;;9.90;99.90;;;;;;5136564;27;20053;-50
2022/10/31 07:25:10;;;;;;;38.70;29.90;;;9.90;99.90;;;;;;5118313;27;20059;-44
2022/10/31 07:27:40;;;;;;;41.60;29.80;;;9.90;99.90;;;;;;5081240;27;20077;-54
2022/10/31 07:30:08;;;;;;;37.10;29.63;;;9.90;99.90;;;;;;5136266;27;20045;-55
2022/10/31 07:32:43;;;;;;;37.25;28.92;;;9.90;99.90;;;;;;5136699;27;20393;-50
2022/10/31 07:35:15;;;;;;;38.42;28.33;;;10.00;99.90;;;;;;5136947;27;20081;-52
2022/10/31 07:37:41;;;;;;;37.70;28.42;;;10.10;99.90;;;;;;5137005;27;20054;-46
2022/10/31 07:40:08;;;;;;;38.70;28.40;;;10.10;99.90;;;;;;5137575;27;20043;-52
2022/10/31 07:42:38;;;;;;;36.95;27.27;;;10.10;99.90;;;;;;5137332;27;20065;-49
2022/10/31 07:45:05;;;;;;;39.30;27.52;;;10.20;99.90;;;;;;5137915;27;20149;-44
2022/10/31 07:47:41;;;;;;;38.28;28.10;;;10.30;99.90;;;;;;5135426;27;20045;-46
2022/10/31 07:50:09;;;;;;;36.08;26.77;;;10.30;99.90;;;;;;5136416;27;20129;-48
2022/10/31 07:52:35;;;;;;;38.53;28.58;;;10.40;99.90;;;;;;5117432;27;20531;-50
2022/10/31 07:55:01;;;;;;;33.42;26.98;;;10.40;99.90;;;;;;5136573;27;20046;-50
2022/10/31 07:57:28;;;;;;;36.83;27.52;;;10.50;99.90;;;;;;5135723;27;20034;-47
2022/10/31 07:59:53;;;;;;;29.30;25.73;;;10.60;99.90;;;;;;5135829;27;20074;-49
2022/10/31 08:02:19;;;;;;;29.92;25.60;;;10.60;99.90;;;;;;5135239;27;20451;-52
2022/10/31 08:04:45;;;;;;;36.47;25.17;;;10.60;99.90;;;;;;5132984;27;20543;-51
2022/10/31 08:07:10;;;;;;;32.80;25.52;;;10.60;99.90;;;;;;5135473;27;20556;-51
2022/10/31 08:09:36;;;;;;;30.95;24.85;;;10.80;99.90;;;;;;5135923;27;20526;-51
2022/10/31 08:12:02;;;;;;;31.02;23.80;;;10.80;99.90;;;;;;5117294;27;20059;-49
2022/10/31 08:14:28;;;;;;;30.42;25.25;;;10.80;99.90;;;;;;5134964;27;20061;-47
2022/10/31 08:16:54;;;;;;;30.83;24.48;;;10.90;99.90;;;;;;5109119;27;20057;-50
2022/10/31 08:19:19;;;;;;;32.35;25.73;;;10.90;99.90;;;;;;5123075;27;20053;-51
2022/10/31 08:21:45;;;;;;;28.85;24.35;;;10.80;99.90;;;;;;5124296;27;20079;-54
2022/10/31 08:24:11;;;;;;;30.58;25.30;;;11.00;99.90;;;;;;5137728;27;20042;-49
2022/10/31 08:26:37;;;;;;;30.33;24.00;;;10.90;99.90;;;;;;5138020;27;20095;-47
2022/10/31 08:29:03;;;;;;;28.38;24.15;;;10.90;99.90;;;;;;5113192;27;20047;-49
2022/10/31 08:31:29;;;;;;;27.45;23.52;;;10.90;99.90;;;;;;5127525;27;20123;-50
2022/10/31 08:33:54;;;;;;;30.63;24.83;;;11.00;99.90;;;;;;5128265;27;20043;-53
2022/10/31 08:36:21;;;;;;;28.30;24.00;;;11.00;99.90;;;;;;5128890;27;20412;-48
2022/10/31 08:38:47;;;;;;;31.58;24.23;;;11.10;99.90;;;;;;5115083;27;20137;-53
2022/10/31 08:41:13;;;;;;;31.27;24.77;;;11.00;99.90;;;;;;5135019;27;20065;-48
2022/10/31 08:43:39;;;;;;;30.70;24.88;;;11.00;99.90;;;;;;5116479;27;20084;-51
2022/10/31 08:46:05;;;;;;;32.47;25.10;;;11.10;99.90;;;;;;5135193;27;20054;-49
2022/10/31 08:48:31;;;;;;;31.10;25.20;;;11.20;99.90;;;;;;5134493;27;20422;-53
2022/10/31 08:50:59;;;;;;;32.15;26.25;;;11.30;99.90;;;;;;5135201;27;20501;-44
2022/10/31 08:53:25;;;;;;;30.90;24.88;;;11.20;99.90;;;;;;5133068;27;20485;-52
2022/10/31 08:55:53;;;;;;;30.30;25.38;;;11.30;99.90;;;;;;5118716;27;20642;-54
2022/10/31 08:58:19;;;;;;;33.15;25.67;;;11.30;99.90;;;;;;5138538;27;20061;-48
2022/10/31 09:00:48;;;;;;;32.92;25.38;;;11.40;99.90;;;;;;5136563;27;20039;-54
2022/10/31 09:03:25;;;;;;;34.67;26.20;;;11.50;99.90;;;;;;5120679;27;20080;-48
2022/10/31 09:05:54;;;;;;;31.80;25.73;;;11.60;99.90;;;;;;5117913;27;20083;-48
2022/10/31 09:08:19;;;;;;;33.83;26.02;;;11.60;99.90;;;;;;5114368;27;20051;-47
2022/10/31 09:10:45;;;;;;;33.72;26.27;;;11.60;99.90;;;;;;5134644;27;20496;-55
2022/10/31 09:13:14;;;;;;;34.00;25.10;;;11.60;99.90;;;;;;5139278;27;20475;-52
2022/10/31 09:15:41;;;;;;;31.42;26.05;;;11.70;99.90;;;;;;5140145;27;20133;-47
2022/10/31 09:18:08;;;;;;;30.90;25.55;;;11.70;99.90;;;;;;5139971;27;20062;-48
2022/10/31 09:20:36;;;;;;;33.65;25.50;;;11.70;99.90;;;;;;5121930;27;20046;-51
2022/10/31 09:23:04;;;;;;;27.92;24.13;;;11.80;99.90;;;;;;5120241;27;20471;-49
2022/10/31 09:25:31;;;;;;;30.13;24.65;;;11.90;99.90;;;;;;5120925;27;20062;-46
2022/10/31 09:27:58;;;;;;;26.65;22.88;;;11.80;99.90;;;;;;5139136;27;20190;-47
2022/10/31 09:30:25;;;;;;;27.25;23.27;;;11.90;99.90;;;;;;5139497;27;20173;-43
2022/10/31 09:33:02;;;;;;;26.63;22.42;;;11.90;99.90;;;;;;5139157;27;20054;-50
2022/10/31 09:35:28;;;;;;;27.45;22.13;;;12.00;99.90;;;;;;5139512;27;20046;-49
2022/10/31 09:37:58;;;;;;;43.95;39.20;;;12.00;99.90;;;;;;5138736;27;20053;-44
2022/10/31 09:40:35;;;;;;;27.33;22.58;;;12.00;99.90;;;;;;5139356;27;20047;-44
2022/10/31 09:43:11;;;;;;;33.03;28.77;;;12.20;99.90;;;;;;5119858;27;20057;-50
2022/10/31 09:45:52;;;;;;;36.38;30.42;;;12.20;99.90;;;;;;5138479;27;20058;-50
2022/10/31 09:48:42;;;;;;;25.40;21.13;;;12.30;99.90;;;;;;5136073;27;20061;-56
2022/10/31 09:51:16;;;;;;;29.75;23.80;;;12.40;99.90;;;;;;5139010;27;20053;-54
2022/10/31 09:53:50;;;;;;;27.77;23.45;;;12.50;99.90;;;;;;5139385;27;20119;-52
2022/10/31 09:56:20;;;;;;;29.13;23.00;;;12.50;99.90;;;;;;5120716;27;20059;-50
2022/10/31 09:58:58;;;;;;;26.90;23.42;;;12.70;99.90;;;;;;5138727;27;20153;-54
2022/10/31 10:01:38;;;;;;;27.83;24.40;;;12.90;99.90;;;;;;5139426;27;20050;-49
2022/10/31 10:04:30;;;;;;;29.80;24.20;;;13.10;99.90;;;;;;5138266;27;20047;-44
2022/10/31 10:06:56;;;;;;;27.17;23.30;;;13.20;99.90;;;;;;5128300;27;20077;-48
2022/10/31 10:09:25;;;;;;;30.52;26.13;;;13.40;99.90;;;;;;5127824;27;20051;-46
2022/10/31 10:12:14;;;;;;;32.40;26.27;;;13.30;99.90;;;;;;5139095;27;20058;-50
2022/10/31 10:14:52;;;;;;;30.48;25.23;;;13.40;99.90;;;;;;5138809;27;20107;-51
2022/10/31 10:17:41;;;;;;;28.40;25.35;;;13.50;99.90;;;;;;5137765;27;20403;-52
2022/10/31 10:20:31;;;;;;;29.73;26.52;;;13.40;99.90;;;;;;5138943;27;20117;-51
2022/10/31 10:23:00;;;;;;;31.83;27.85;;;13.40;99.90;;;;;;5126891;27;20054;-45
2022/10/31 10:25:40;;;;;;;29.92;26.27;;;13.40;99.90;;;;;;5138467;27;20356;-51
2022/10/31 10:28:23;;;;;;;34.90;26.95;;;13.40;99.90;;;;;;5138441;27;20232;-52
2022/10/31 10:31:02;;;;;;;29.38;26.17;;;13.40;99.90;;;;;;5138678;27;20047;-51
2022/10/31 10:33:40;;;;;;;33.85;26.50;;;13.40;99.90;;;;;;5137523;27;20046;-50
2022/10/31 10:36:20;;;;;;;35.38;28.20;;;13.50;99.90;;;;;;5138901;27;20564;-49
2022/10/31 10:38:55;;;;;;;32.83;27.27;;;13.50;99.90;;;;;;5137575;27;20046;-54
2022/10/31 10:41:23;;;;;;;31.50;26.35;;;13.60;99.90;;;;;;5138390;27;20412;-49
2022/10/31 10:43:50;;;;;;;31.13;27.05;;;13.60;99.90;;;;;;5119943;27;20583;-44
2022/10/31 10:49:38;;;;;;;30.63;25.23;;;13.70;99.90;;;;;;5138655;27;20062;-51
2022/10/31 10:52:34;;;;;;;32.35;26.00;;;13.70;99.90;;;;;;5103529;27;20046;-52
2022/10/31 10:55:18;;;;;;;29.58;26.10;;;13.80;99.90;;;;;;5137461;27;20381;-48
2022/10/31 10:58:00;;;;;;;34.13;25.90;;;13.80;99.90;;;;;;5118956;27;20066;-47
2022/10/31 11:00:32;;;;;;;31.92;26.05;;;13.70;99.90;;;;;;5138579;27;20529;-48
2022/10/31 11:02:58;;;;;;;34.10;26.60;;;13.70;99.90;;;;;;5137032;27;20647;-49
2022/10/31 11:05:35;;;;;;;33.80;26.58;;;13.70;99.90;;;;;;5132510;27;20526;-50
2022/10/31 11:08:01;;;;;;;32.58;28.23;;;13.60;99.90;;;;;;5116484;27;20401;-49
2022/10/31 11:10:27;;;;;;;31.85;27.52;;;13.70;99.90;;;;;;5114297;27;20062;-49
2022/10/31 11:13:13;;;;;;;35.03;28.23;;;13.60;99.90;;;;;;5137197;27;20038;-44
2022/10/31 11:16:02;;;;;;;35.55;29.17;;;13.70;99.90;;;;;;5137597;27;20046;-45
2022/10/31 11:18:31;;;;;;;36.25;28.05;;;13.70;99.90;;;;;;5136928;27;20050;-49
2022/10/31 11:21:00;;;;;;;38.08;31.90;;;13.70;99.90;;;;;;5137570;27;20039;-53
2022/10/31 11:23:28;;;;;;;37.92;28.95;;;13.80;99.90;;;;;;5137500;27;20118;-52
2022/10/31 11:25:58;;;;;;;33.50;26.92;;;13.90;99.90;;;;;;5138044;27;20057;-48
2022/10/31 11:28:25;;;;;;;102.07;91.22;;;14.00;99.90;;;;;;5136363;27;20146;-49
2022/10/31 11:31:00;;;;;;;34.03;27.45;;;14.10;99.90;;;;;;5137542;27;20504;-48
2022/10/31 11:33:28;;;;;;;29.15;25.83;;;14.30;99.90;;;;;;5137107;27;20062;-44
2022/10/31 11:35:54;;;;;;;29.33;23.75;;;14.40;99.90;;;;;;5137440;27;20194;-49
2022/10/31 11:38:22;;;;;;;27.95;21.73;;;14.40;99.90;;;;;;5136206;27;20098;-52
2022/10/31 11:40:58;;;;;;;29.23;21.88;;;14.50;99.90;;;;;;5135530;27;20128;-45
2022/10/31 11:43:24;;;;;;;22.60;19.92;;;14.60;99.90;;;;;;5135884;27;20046;-46
2022/10/31 11:45:50;;;;;;;24.77;18.85;;;14.70;99.90;;;;;;5137173;27;20114;-50
2022/10/31 11:48:19;;;;;;;22.20;19.08;;;14.80;99.90;;;;;;5135746;27;20659;-54
2022/10/31 11:50:55;;;;;;;23.08;18.63;;;14.90;99.90;;;;;;5136529;27;20051;-53
2022/10/31 11:53:32;;;;;;;23.30;16.60;;;14.90;99.90;;;;;;5136616;27;20377;-50
2022/10/31 11:56:13;;;;;;;18.77;16.27;;;15.00;99.90;;;;;;5136974;27;20396;-50
2022/10/31 11:58:39;;;;;;;16.42;14.63;;;15.10;99.90;;;;;;5117573;27;20058;-48
2022/10/31 12:01:05;;;;;;;19.35;14.25;;;15.10;99.90;;;;;;5137538;27;20039;-47
2022/10/31 12:04:07;;;;;;;20.20;15.30;;;14.90;99.90;;;;;;5136180;27;20695;-50
2022/10/31 12:06:38;;;;;;;22.80;14.90;;;15.00;99.90;;;;;;5133713;27;20042;-48
2022/10/31 12:09:30;;;;;;;20.38;16.88;;;14.90;99.90;;;;;;5125977;27;20124;-50
2022/10/31 12:12:04;;;;;;;18.33;15.38;;;14.80;99.90;;;;;;5136524;27;20047;-51
2022/10/31 12:14:33;;;;;;;19.23;17.23;;;14.80;99.90;;;;;;5136932;27;20813;-49
2022/10/31 12:17:24;;;;;;;18.75;14.50;;;14.80;99.90;;;;;;5136118;27;20111;-46
2022/10/31 12:20:04;;;;;;;17.98;15.00;;;14.80;99.90;;;;;;5137365;27;20051;-47
2022/10/31 12:22:55;;;;;;;15.77;12.63;;;14.80;99.90;;;;;;5135626;27;20092;-47
2022/10/31 12:25:36;;;;;;;18.05;13.00;;;14.80;99.90;;;;;;5136672;27;20054;-49
2022/10/31 12:28:17;;;;;;;19.55;13.25;;;14.80;99.90;;;;;;5135883;27;20043;-50
2022/10/31 12:31:00;;;;;;;19.42;13.77;;;14.90;99.90;;;;;;5127822;27;20084;-45
2022/10/31 12:33:49;;;;;;;17.27;12.20;;;14.80;99.90;;;;;;5140156;27;20081;-46
2022/10/31 12:36:55;;;;;;;17.02;13.65;;;14.90;99.90;;;;;;5122627;27;20081;-53
2022/10/31 12:39:40;;;;;;;21.65;13.45;;;14.90;99.90;;;;;;5132631;27;20039;-56
2022/10/31 12:42:24;;;;;;;18.05;13.50;;;14.90;99.90;;;;;;5140347;27;20575;-44
2022/10/31 12:45:08;;;;;;;21.25;13.75;;;14.90;99.90;;;;;;5141058;27;20520;-52
2022/10/31 12:47:55;;;;;;;19.38;13.45;;;14.90;99.90;;;;;;5140909;27;20602;-53
2022/10/31 12:50:31;;;;;;;15.82;13.48;;;15.00;99.90;;;;;;5130041;27;20042;-47
2022/10/31 12:53:09;;;;;;;17.70;13.00;;;15.00;99.90;;;;;;5140055;27;20456;-51